Time;durP1;ratioP1;P1;durP2;ratioP2;P2;SDS_P1;SDS_P2;PMS_P1;PMS_P2;Temp;Humidity;BMP_temperature;BMP_pressure;BME280_temperature;BME280_humidity;BME280_pressure;Samples;Min_cycle;Max_cycle;Signal;HPM_P1;HPM_P2
2022/01/05 00:04:00;;;;;;;0.68;0.68;;;;;;;;;;8369740;28;20085;-68
2022/01/05 00:08:00;;;;;;;1.05;0.52;;;;;;;;;;8369714;28;20445;-68
2022/01/05 00:12:00;;;;;;;0.73;0.73;;;;;;;;;;8369247;28;20082;-68
2022/01/05 00:16:00;;;;;;;0.57;0.52;;;;;;;;;;8369390;28;20274;-68
2022/01/05 00:20:01;;;;;;;0.50;0.50;;;;;;;;;;8367558;28;20029;-67
2022/01/05 00:24:01;;;;;;;0.60;0.60;;;;;;;;;;8370059;28;20090;-68
2022/01/05 00:28:02;;;;;;;0.75;0.60;;;;;;;;;;8370841;28;21018;-68
2022/01/05 00:32:02;;;;;;;0.70;0.70;;;;;;;;;;8368778;28;20036;-68
2022/01/05 00:36:03;;;;;;;2.05;0.70;;;;;;;;;;8370149;28;20024;-68
2022/01/05 00:40:04;;;;;;;1.67;0.70;;;;;;;;;;8371011;28;20021;-68
2022/01/05 00:44:05;;;;;;;0.70;0.70;;;;;;;;;;8369154;28;20527;-68
2022/01/05 00:48:05;;;;;;;0.80;0.68;;;;;;;;;;8367658;28;20149;-68
2022/01/05 00:52:05;;;;;;;3.63;0.85;;;;;;;;;;8366998;28;20028;-68
2022/01/05 00:56:05;;;;;;;2.08;0.77;;;;;;;;;;8367732;28;20016;-68
2022/01/05 01:00:06;;;;;;;2.72;1.00;;;;;;;;;;8366547;28;20028;-68
2022/01/05 01:04:07;;;;;;;3.85;0.90;;;;;;;;;;8366624;28;20089;-68
2022/01/05 01:08:07;;;;;;;2.45;0.88;;;;;;;;;;8363933;28;20033;-68
2022/01/05 01:12:08;;;;;;;0.90;0.80;;;;;;;;;;8364951;28;20025;-68
2022/01/05 01:16:08;;;;;;;1.25;0.73;;;;;;;;;;8366717;28;20763;-68
2022/01/05 01:20:08;;;;;;;2.50;0.98;;;;;;;;;;8367883;28;20544;-67
2022/01/05 01:24:08;;;;;;;3.22;0.90;;;;;;;;;;8366528;28;21091;-68
2022/01/05 01:28:09;;;;;;;2.72;0.82;;;;;;;;;;8365255;28;20036;-67
2022/01/05 01:32:09;;;;;;;6.03;1.40;;;;;;;;;;8364253;28;20488;-68
2022/01/05 01:36:09;;;;;;;2.25;0.90;;;;;;;;;;8364876;28;20064;-68
2022/01/05 01:40:10;;;;;;;3.03;1.27;;;;;;;;;;8367346;28;20403;-68
2022/01/05 01:44:10;;;;;;;2.35;1.00;;;;;;;;;;8368734;28;20481;-68
2022/01/05 01:48:10;;;;;;;3.25;1.02;;;;;;;;;;8365760;28;20378;-68
2022/01/05 01:52:10;;;;;;;2.05;1.10;;;;;;;;;;8367877;28;20025;-67
2022/01/05 01:56:11;;;;;;;3.67;1.30;;;;;;;;;;8365651;28;20112;-67
2022/01/05 02:00:11;;;;;;;3.90;1.35;;;;;;;;;;8364602;28;20111;-67
2022/01/05 02:04:12;;;;;;;2.33;1.30;;;;;;;;;;8364546;28;20043;-68
2022/01/05 02:08:12;;;;;;;2.47;1.40;;;;;;;;;;8363924;28;20038;-68
2022/01/05 02:12:12;;;;;;;2.10;1.25;;;;;;;;;;8364764;28;20012;-68
2022/01/05 02:16:18;;;;;;;4.30;1.55;;;;;;;;;;8364578;28;20047;-68
2022/01/05 02:20:23;;;;;;;3.17;1.27;;;;;;;;;;8362383;28;20393;-67
2022/01/05 02:24:23;;;;;;;2.38;1.25;;;;;;;;;;8365563;28;20421;-68
2022/01/05 02:28:23;;;;;;;1.90;1.48;;;;;;;;;;8364950;28;20028;-68
2022/01/05 02:32:24;;;;;;;0.75;0.57;;;;;;;;;;8363738;28;20702;-67
2022/01/05 02:36:24;;;;;;;1.48;0.60;;;;;;;;;;8369088;28;20105;-68
2022/01/05 02:40:24;;;;;;;0.40;0.40;;;;;;;;;;8366177;28;20031;-68
2022/01/05 02:44:24;;;;;;;0.50;0.50;;;;;;;;;;8365522;28;20031;-68
2022/01/05 02:48:25;;;;;;;0.93;0.40;;;;;;;;;;8366072;28;20036;-68
2022/01/05 02:52:25;;;;;;;1.08;0.50;;;;;;;;;;8366110;28;20278;-68
2022/01/05 02:56:25;;;;;;;0.30;0.30;;;;;;;;;;8364760;28;20028;-68
2022/01/05 03:00:25;;;;;;;0.80;0.43;;;;;;;;;;8363890;28;20048;-68
2022/01/05 03:04:26;;;;;;;0.40;0.40;;;;;;;;;;8364385;28;20028;-68
2022/01/05 03:08:26;;;;;;;0.40;0.40;;;;;;;;;;8365423;28;20036;-68
2022/01/05 03:12:27;;;;;;;0.50;0.43;;;;;;;;;;8366662;28;20423;-68
2022/01/05 03:16:27;;;;;;;0.50;0.50;;;;;;;;;;8364721;28;20083;-68
2022/01/05 03:20:29;;;;;;;0.50;0.50;;;;;;;;;;8365360;28;20752;-68
2022/01/05 03:24:29;;;;;;;0.52;0.50;;;;;;;;;;8364888;28;20036;-68
2022/01/05 03:28:30;;;;;;;0.73;0.50;;;;;;;;;;8364523;28;20101;-68
2022/01/05 03:32:40;;;;;;;0.52;0.52;;;;;;;;;;8365722;28;20123;-68
2022/01/05 03:36:41;;;;;;;0.60;0.57;;;;;;;;;;8370388;28;20056;-68
2022/01/05 03:40:41;;;;;;;0.50;0.50;;;;;;;;;;8370425;28;20033;-68
2022/01/05 03:44:42;;;;;;;1.27;0.47;;;;;;;;;;8369408;28;20025;-68
2022/01/05 03:48:42;;;;;;;0.97;0.53;;;;;;;;;;8368587;28;20039;-68
2022/01/05 03:52:42;;;;;;;0.50;0.50;;;;;;;;;;8367582;28;20390;-68
2022/01/05 03:56:42;;;;;;;0.40;0.40;;;;;;;;;;8369417;28;20035;-68
2022/01/05 04:00:47;;;;;;;0.70;0.50;;;;;;;;;;8367845;28;20556;-68
2022/01/05 04:04:47;;;;;;;0.35;0.35;;;;;;;;;;8370240;28;21005;-68
2022/01/05 04:08:47;;;;;;;0.50;0.50;;;;;;;;;;8367306;28;20079;-67
2022/01/05 04:12:48;;;;;;;0.50;0.50;;;;;;;;;;8367503;28;20032;-67
2022/01/05 04:16:48;;;;;;;0.40;0.40;;;;;;;;;;8366933;28;20032;-67
2022/01/05 04:20:48;;;;;;;0.40;0.40;;;;;;;;;;8366567;28;20025;-67
2022/01/05 04:24:49;;;;;;;0.50;0.50;;;;;;;;;;8368668;28;20033;-68
2022/01/05 04:28:49;;;;;;;0.43;0.40;;;;;;;;;;8367650;28;20032;-67
2022/01/05 04:32:49;;;;;;;1.17;0.50;;;;;;;;;;8365757;28;20473;-67
2022/01/05 04:36:49;;;;;;;1.85;0.60;;;;;;;;;;8366515;28;20501;-67
2022/01/05 04:40:49;;;;;;;2.35;0.60;;;;;;;;;;8367206;28;20024;-67
2022/01/05 04:44:50;;;;;;;1.25;0.50;;;;;;;;;;8365509;28;20024;-68
2022/01/05 04:48:50;;;;;;;2.63;0.65;;;;;;;;;;8365795;28;20040;-67
2022/01/05 04:52:50;;;;;;;3.70;0.70;;;;;;;;;;8364217;28;20031;-68
2022/01/05 04:56:50;;;;;;;3.05;0.70;;;;;;;;;;8366037;28;20024;-68
2022/01/05 05:00:50;;;;;;;2.30;0.73;;;;;;;;;;8364717;28;20052;-68
2022/01/05 05:04:51;;;;;;;2.25;0.80;;;;;;;;;;8365631;28;20550;-68
2022/01/05 05:08:51;;;;;;;2.45;1.30;;;;;;;;;;8366538;28;20036;-67
2022/01/05 05:12:51;;;;;;;4.53;1.20;;;;;;;;;;8365962;28;20028;-67
2022/01/05 05:16:52;;;;;;;1.80;0.70;;;;;;;;;;8365365;28;20482;-67
2022/01/05 05:20:52;;;;;;;2.70;0.80;;;;;;;;;;8365654;28;20028;-67
2022/01/05 05:24:52;;;;;;;1.83;0.80;;;;;;;;;;8366275;28;20032;-68
2022/01/05 05:28:52;;;;;;;1.80;1.17;;;;;;;;;;8364034;28;20547;-68
2022/01/05 05:32:57;;;;;;;1.58;0.77;;;;;;;;;;8364808;28;20599;-67
2022/01/05 05:36:57;;;;;;;4.35;0.90;;;;;;;;;;8364723;28;20562;-67
2022/01/05 05:40:58;;;;;;;4.20;0.93;;;;;;;;;;8365478;28;20028;-67
2022/01/05 05:44:58;;;;;;;7.93;1.20;;;;;;;;;;8364984;28;20514;-67
2022/01/05 05:48:58;;;;;;;2.38;1.10;;;;;;;;;;8364360;28;20048;-67
2022/01/05 05:52:58;;;;;;;1.48;1.00;;;;;;;;;;8363932;28;20032;-67
2022/01/05 05:56:58;;;;;;;6.88;1.10;;;;;;;;;;8365634;28;20118;-67
2022/01/05 06:00:58;;;;;;;4.40;1.30;;;;;;;;;;8365047;28;20127;-67
2022/01/05 06:04:59;;;;;;;4.32;1.35;;;;;;;;;;8366669;28;20404;-67
2022/01/05 06:08:59;;;;;;;7.57;1.73;;;;;;;;;;8365073;28;20047;-67
2022/01/05 06:12:59;;;;;;;6.05;1.52;;;;;;;;;;8364764;28;21013;-67
2022/01/05 06:16:59;;;;;;;5.25;1.30;;;;;;;;;;8364032;28;21049;-67
2022/01/05 06:20:59;;;;;;;6.85;1.48;;;;;;;;;;8363322;28;20025;-67
2022/01/05 06:25:00;;;;;;;6.43;1.50;;;;;;;;;;8359873;28;20032;-67
2022/01/05 06:29:00;;;;;;;7.40;1.33;;;;;;;;;;8358265;28;20425;-67
2022/01/05 06:33:00;;;;;;;5.53;1.33;;;;;;;;;;8355143;28;20064;-67
2022/01/05 06:37:00;;;;;;;3.45;0.93;;;;;;;;;;8356392;28;20116;-67
2022/01/05 06:41:01;;;;;;;6.32;1.83;;;;;;;;;;8359156;28;20341;-67
2022/01/05 06:45:01;;;;;;;4.95;1.23;;;;;;;;;;8356217;28;20834;-67
2022/01/05 06:49:01;;;;;;;5.70;1.75;;;;;;;;;;8342480;28;20048;-67
2022/01/05 06:53:02;;;;;;;12.77;2.07;;;;;;;;;;8331314;28;20028;-67
2022/01/05 06:57:02;;;;;;;8.55;1.60;;;;;;;;;;8354356;28;20271;-67
2022/01/05 07:01:02;;;;;;;10.37;2.73;;;;;;;;;;8357272;28;20036;-67
2022/01/05 07:05:03;;;;;;;8.25;1.92;;;;;;;;;;8356803;28;20294;-66
2022/01/05 07:09:05;;;;;;;2.80;1.30;;;;;;;;;;8365147;28;20278;-67
2022/01/05 07:13:05;;;;;;;13.65;2.67;;;;;;;;;;8362407;28;20587;-67
2022/01/05 07:17:05;;;;;;;9.07;3.03;;;;;;;;;;8361340;28;20357;-67
2022/01/05 07:21:06;;;;;;;8.70;2.15;;;;;;;;;;8361945;28;21055;-66
2022/01/05 07:25:06;;;;;;;8.50;2.08;;;;;;;;;;8359921;28;20020;-67
2022/01/05 07:29:07;;;;;;;7.97;1.70;;;;;;;;;;8358904;28;20056;-67
2022/01/05 07:33:07;;;;;;;6.23;2.03;;;;;;;;;;8360956;28;20071;-67
2022/01/05 07:37:07;;;;;;;5.93;1.70;;;;;;;;;;8362316;28;20266;-68
2022/01/05 07:41:07;;;;;;;6.22;1.75;;;;;;;;;;8360114;28;20028;-67
2022/01/05 07:45:09;;;;;;;12.02;1.77;;;;;;;;;;8359271;28;20476;-67
2022/01/05 07:49:09;;;;;;;11.35;2.28;;;;;;;;;;8359924;28;20125;-67
2022/01/05 07:53:09;;;;;;;9.02;1.80;;;;;;;;;;8361767;28;20025;-67
2022/01/05 07:57:10;;;;;;;8.75;2.38;;;;;;;;;;8360229;28;20588;-67
2022/01/05 08:01:10;;;;;;;11.18;2.13;;;;;;;;;;8361703;28;20033;-67
2022/01/05 08:05:10;;;;;;;5.43;1.65;;;;;;;;;;8359947;28;20122;-67
2022/01/05 08:09:11;;;;;;;11.05;1.98;;;;;;;;;;8361639;28;20111;-67
2022/01/05 08:13:11;;;;;;;11.70;2.08;;;;;;;;;;8359213;28;20275;-67
2022/01/05 08:17:11;;;;;;;6.18;1.75;;;;;;;;;;8359819;28;20417;-67
2022/01/05 08:21:11;;;;;;;7.43;1.73;;;;;;;;;;8358991;28;20035;-67
2022/01/05 08:25:13;;;;;;;9.75;1.90;;;;;;;;;;8360756;28;20566;-66
2022/01/05 08:29:13;;;;;;;9.07;2.00;;;;;;;;;;8358803;28;20028;-67
2022/01/05 08:33:14;;;;;;;10.15;2.08;;;;;;;;;;8357604;28;20268;-67
2022/01/05 08:37:15;;;;;;;7.38;1.70;;;;;;;;;;8360214;28;20024;-67
2022/01/05 08:41:15;;;;;;;12.45;2.58;;;;;;;;;;8358331;28;20469;-67
2022/01/05 08:45:16;;;;;;;15.18;2.38;;;;;;;;;;8359190;28;20032;-67
2022/01/05 08:49:16;;;;;;;10.77;1.70;;;;;;;;;;8360086;28;20758;-67
2022/01/05 08:53:17;;;;;;;7.82;1.67;;;;;;;;;;8360420;28;20414;-67
2022/01/05 08:57:17;;;;;;;6.25;1.55;;;;;;;;;;8358382;28;20393;-67
2022/01/05 09:01:17;;;;;;;6.13;1.55;;;;;;;;;;8359947;28;20556;-67
2022/01/05 09:05:17;;;;;;;9.55;1.80;;;;;;;;;;8355896;28;20146;-66
2022/01/05 09:09:18;;;;;;;6.97;1.90;;;;;;;;;;8359579;28;20031;-66
2022/01/05 09:13:19;;;;;;;5.40;1.48;;;;;;;;;;8358524;28;20704;-67
2022/01/05 09:17:20;;;;;;;11.38;1.60;;;;;;;;;;8357790;28;20734;-66
2022/01/05 09:21:20;;;;;;;13.30;2.10;;;;;;;;;;8359005;28;20615;-66
2022/01/05 09:25:21;;;;;;;6.72;1.75;;;;;;;;;;8359376;28;20177;-67
2022/01/05 09:29:23;;;;;;;7.78;1.75;;;;;;;;;;8357176;28;20086;-68
2022/01/05 09:33:23;;;;;;;6.22;1.67;;;;;;;;;;8355285;28;20036;-67
2022/01/05 09:37:28;;;;;;;10.10;2.25;;;;;;;;;;8358541;28;20067;-67
2022/01/05 09:45:59;;;;;;;10.68;1.83;;;;;;;;;;8356760;28;20367;-67
2022/01/05 09:50:03;;;;;;;6.05;1.77;;;;;;;;;;8357929;28;20415;-67
2022/01/05 09:54:03;;;;;;;9.65;2.05;;;;;;;;;;8357820;28;20059;-67
2022/01/05 09:58:03;;;;;;;11.32;1.95;;;;;;;;;;8357504;28;20039;-67
2022/01/05 10:02:04;;;;;;;12.50;2.15;;;;;;;;;;8356563;28;20044;-67
2022/01/05 10:06:05;;;;;;;8.27;1.80;;;;;;;;;;8346216;28;20032;-67
2022/01/05 10:10:06;;;;;;;9.35;1.58;;;;;;;;;;8357467;28;20091;-67
2022/01/05 10:14:09;;;;;;;8.73;1.95;;;;;;;;;;8355285;28;20016;-67
2022/01/05 10:18:10;;;;;;;7.68;2.03;;;;;;;;;;8355851;28;20332;-67
2022/01/05 10:22:34;;;;;;;9.70;2.00;;;;;;;;;;8356514;28;20421;-66
2022/01/05 10:26:36;;;;;;;8.25;2.05;;;;;;;;;;8357185;28;20032;-67
2022/01/05 10:30:38;;;;;;;7.43;1.73;;;;;;;;;;8356629;28;20043;-67
2022/01/05 10:34:39;;;;;;;9.85;1.85;;;;;;;;;;8355934;28;20020;-67
2022/01/05 10:38:49;;;;;;;7.35;1.85;;;;;;;;;;8356709;28;20034;-67
2022/01/05 10:42:54;;;;;;;8.52;1.77;;;;;;;;;;8355736;28;20020;-67
2022/01/05 10:46:54;;;;;;;;;;;;;;;;;;8354542;28;20630;-67
2022/01/05 10:51:05;;;;;;;6.50;2.10;;;;;;;;;;8356066;28;20434;-67
2022/01/05 10:55:15;;;;;;;6.30;1.92;;;;;;;;;;8355829;28;20024;-68
2022/01/05 10:59:21;;;;;;;14.07;2.47;;;;;;;;;;8356629;28;20107;-68
2022/01/05 11:03:24;;;;;;;6.82;1.80;;;;;;;;;;8355035;28;20044;-67
2022/01/05 11:07:26;;;;;;;8.57;1.95;;;;;;;;;;8355777;28;20035;-67
2022/01/05 11:11:28;;;;;;;8.98;2.33;;;;;;;;;;8355452;28;20028;-67
2022/01/05 11:15:35;;;;;;;6.22;1.73;;;;;;;;;;8356284;28;20097;-67
2022/01/05 11:19:36;;;;;;;11.23;1.90;;;;;;;;;;8355898;28;20026;-67
2022/01/05 11:23:37;;;;;;;5.13;1.33;;;;;;;;;;8356030;28;20017;-67
2022/01/05 11:27:37;;;;;;;6.25;1.70;;;;;;;;;;8355880;28;20412;-68
2022/01/05 11:31:37;;;;;;;7.82;1.40;;;;;;;;;;8352851;28;20432;-67
2022/01/05 11:35:37;;;;;;;7.43;1.90;;;;;;;;;;8355435;28;20178;-67
2022/01/05 11:39:42;;;;;;;8.18;1.90;;;;;;;;;;8354273;28;21605;-67
2022/01/05 11:43:43;;;;;;;7.00;1.60;;;;;;;;;;8356068;28;21019;-67
2022/01/05 11:47:43;;;;;;;5.28;1.48;;;;;;;;;;8354283;28;20032;-68
2022/01/05 11:51:45;;;;;;;4.88;1.48;;;;;;;;;;8349614;28;20035;-67
2022/01/05 11:55:57;;;;;;;8.23;1.83;;;;;;;;;;8360202;28;20101;-67
2022/01/05 12:00:33;;;;;;;10.93;3.00;;;;;;;;;;8360600;28;20162;-67
2022/01/05 12:05:00;;;;;;;6.55;1.45;;;;;;;;;;8294450;28;20040;-68
2022/01/05 12:09:05;;;;;;;5.82;1.58;;;;;;;;;;8359440;28;20341;-68
2022/01/05 12:13:05;;;;;;;;;;;;;;;;;;8361042;28;20039;-68
2022/01/05 12:17:16;;;;;;;10.38;1.90;;;;;;;;;;8360624;28;20015;-67
2022/01/05 12:21:35;;;;;;;6.30;1.58;;;;;;;;;;8360062;28;20032;-67
2022/01/05 12:25:35;;;;;;;8.02;1.92;;;;;;;;;;8359084;28;20039;-67
2022/01/05 12:29:35;;;;;;;7.40;1.98;;;;;;;;;;8358266;28;20063;-67
2022/01/05 12:33:43;;;;;;;7.88;1.80;;;;;;;;;;8358716;28;20036;-67
2022/01/05 12:37:46;;;;;;;5.53;1.55;;;;;;;;;;8357271;28;20103;-67
2022/01/05 12:41:47;;;;;;;7.53;1.95;;;;;;;;;;8359826;28;20024;-67
2022/01/05 12:45:51;;;;;;;7.13;1.70;;;;;;;;;;8358432;28;20410;-68
2022/01/05 12:50:11;;;;;;;5.68;1.33;;;;;;;;;;8359031;28;21234;-69
2022/01/05 12:54:13;;;;;;;6.65;1.60;;;;;;;;;;8360312;28;20028;-68
2022/01/05 12:58:13;;;;;;;7.25;1.80;;;;;;;;;;8357704;28;20054;-67
2022/01/05 13:02:14;;;;;;;8.25;1.60;;;;;;;;;;8359063;28;20060;-68
2022/01/05 13:06:16;;;;;;;6.32;1.60;;;;;;;;;;8358250;28;20440;-67
2022/01/05 13:10:16;;;;;;;10.38;1.80;;;;;;;;;;8358929;28;20028;-68
2022/01/05 13:14:20;;;;;;;9.10;1.55;;;;;;;;;;8357601;28;20573;-67
2022/01/05 13:18:29;;;;;;;10.20;1.98;;;;;;;;;;8357282;28;20371;-67
2022/01/05 13:22:31;;;;;;;7.65;1.73;;;;;;;;;;8357175;28;20502;-69
2022/01/05 13:26:31;;;;;;;9.85;1.60;;;;;;;;;;8359792;28;20020;-68
2022/01/05 13:30:35;;;;;;;7.57;1.52;;;;;;;;;;8356856;28;20116;-69
2022/01/05 13:34:37;;;;;;;9.40;1.40;;;;;;;;;;8359881;28;20029;-69
2022/01/05 13:38:38;;;;;;;10.65;2.10;;;;;;;;;;8359858;28;20304;-68
2022/01/05 13:42:40;;;;;;;9.52;1.60;;;;;;;;;;8359457;28;20024;-69
2022/01/05 13:46:40;;;;;;;8.35;2.10;;;;;;;;;;8361181;28;20036;-69
2022/01/05 13:50:44;;;;;;;8.23;1.83;;;;;;;;;;8359098;28;20965;-68
2022/01/05 13:54:44;;;;;;;6.97;1.63;;;;;;;;;;8358953;28;20036;-68
2022/01/05 13:58:53;;;;;;;8.55;1.60;;;;;;;;;;8357929;28;20021;-67
2022/01/05 14:02:53;;;;;;;10.80;1.90;;;;;;;;;;8355619;28;20075;-68
2022/01/05 14:06:58;;;;;;;10.35;1.98;;;;;;;;;;8359378;28;20024;-69
2022/01/05 14:11:06;;;;;;;8.25;1.80;;;;;;;;;;8359568;28;20414;-68
2022/01/05 14:15:07;;;;;;;8.73;2.05;;;;;;;;;;8356529;28;20040;-69
2022/01/05 14:19:12;;;;;;;8.68;1.98;;;;;;;;;;8359801;28;20082;-69
2022/01/05 14:23:13;;;;;;;4.00;1.60;;;;;;;;;;8354017;28;20028;-68
2022/01/05 14:27:15;;;;;;;10.77;1.60;;;;;;;;;;8356249;28;20583;-68
2022/01/05 14:31:15;;;;;;;3.45;1.55;;;;;;;;;;8357172;28;20440;-68
2022/01/05 14:35:16;;;;;;;12.38;2.35;;;;;;;;;;8357323;28;20106;-68
2022/01/05 14:39:18;;;;;;;6.85;1.40;;;;;;;;;;8358331;28;20040;-68
2022/01/05 14:43:18;;;;;;;6.55;1.60;;;;;;;;;;8359136;28;20102;-69
2022/01/05 14:47:23;;;;;;;8.13;2.35;;;;;;;;;;8357244;28;20036;-68
2022/01/05 14:51:24;;;;;;;9.43;1.63;;;;;;;;;;8359127;28;20397;-68
2022/01/05 14:55:24;;;;;;;4.00;1.40;;;;;;;;;;8357604;28;20419;-68
2022/01/05 14:59:24;;;;;;;7.13;1.93;;;;;;;;;;8357987;28;20035;-69
2022/01/05 15:03:24;;;;;;;6.43;1.57;;;;;;;;;;8354716;28;20368;-68
2022/01/05 15:07:25;;;;;;;12.73;2.13;;;;;;;;;;8356861;28;21289;-68
2022/01/05 15:11:25;;;;;;;18.05;2.22;;;;;;;;;;8356083;28;20025;-68
2022/01/05 15:15:26;;;;;;;7.18;1.88;;;;;;;;;;8356904;28;20036;-68
2022/01/05 15:19:26;;;;;;;6.30;1.88;;;;;;;;;;8356156;28;20033;-68
2022/01/05 15:23:26;;;;;;;10.93;2.13;;;;;;;;;;8356672;28;20089;-68
2022/01/05 15:27:26;;;;;;;6.97;1.85;;;;;;;;;;8357922;28;20032;-67
2022/01/05 15:31:27;;;;;;;8.45;1.70;;;;;;;;;;8359284;28;20059;-68
2022/01/05 15:35:27;;;;;;;8.02;1.70;;;;;;;;;;8359719;28;20020;-68
2022/01/05 15:39:27;;;;;;;13.77;2.50;;;;;;;;;;8363315;28;20024;-72
2022/01/05 15:43:27;;;;;;;6.63;2.08;;;;;;;;;;8359701;28;20279;-68
2022/01/05 15:47:28;;;;;;;5.45;1.52;;;;;;;;;;8357513;28;20035;-68
2022/01/05 15:51:28;;;;;;;8.35;1.98;;;;;;;;;;8363191;28;20020;-68
2022/01/05 15:55:34;;;;;;;10.48;2.03;;;;;;;;;;8360157;28;20102;-68
2022/01/05 16:03:54;;;;;;;7.43;2.47;;;;;;;;;;8359368;28;20093;-67
2022/01/05 16:07:54;;;;;;;10.25;1.85;;;;;;;;;;8361791;28;20030;-67
2022/01/05 16:11:54;;;;;;;8.98;2.72;;;;;;;;;;8360020;28;20548;-69
2022/01/05 16:15:55;;;;;;;10.35;1.90;;;;;;;;;;8359648;28;20604;-67
2022/01/05 16:19:55;;;;;;;7.20;1.90;;;;;;;;;;8360759;28;20055;-68
2022/01/05 16:23:55;;;;;;;8.60;2.13;;;;;;;;;;8359904;28;20064;-67
2022/01/05 16:27:56;;;;;;;8.30;2.00;;;;;;;;;;8359903;28;20028;-67
2022/01/05 16:31:57;;;;;;;5.13;1.60;;;;;;;;;;8360041;28;20658;-68
2022/01/05 16:35:57;;;;;;;10.73;1.73;;;;;;;;;;8357468;28;20028;-67
2022/01/05 16:39:58;;;;;;;4.82;1.50;;;;;;;;;;8359257;28;20461;-68
2022/01/05 16:43:58;;;;;;;7.63;2.05;;;;;;;;;;8359095;28;20032;-67
2022/01/05 16:47:59;;;;;;;5.65;1.60;;;;;;;;;;8356860;28;20040;-68
2022/01/05 16:51:59;;;;;;;8.55;2.13;;;;;;;;;;8360231;28;20055;-68
2022/01/05 16:56:01;;;;;;;7.85;2.20;;;;;;;;;;8358291;28;20029;-67
2022/01/05 17:04:21;;;;;;;5.07;1.40;;;;;;;;;;8357350;28;20555;-68
2022/01/05 17:08:21;;;;;;;7.88;1.88;;;;;;;;;;8357601;28;20121;-68
2022/01/05 17:12:21;;;;;;;9.93;1.98;;;;;;;;;;8357328;28;20039;-68
2022/01/05 17:16:21;;;;;;;9.90;2.17;;;;;;;;;;8357624;28;20147;-67
2022/01/05 17:20:22;;;;;;;4.50;1.55;;;;;;;;;;8358439;28;20022;-68
2022/01/05 17:24:22;;;;;;;5.88;1.80;;;;;;;;;;8358558;28;20028;-68
2022/01/05 17:28:22;;;;;;;6.97;1.98;;;;;;;;;;8356496;28;20028;-68
2022/01/05 17:32:22;;;;;;;5.43;1.92;;;;;;;;;;8355749;28;20295;-68
2022/01/05 17:36:26;;;;;;;4.85;1.95;;;;;;;;;;8358163;28;20032;-67
2022/01/05 17:40:27;;;;;;;9.88;1.80;;;;;;;;;;8355968;28;20020;-67
2022/01/05 17:44:27;;;;;;;9.52;2.00;;;;;;;;;;8351601;28;20828;-68
2022/01/05 17:48:29;;;;;;;7.35;1.83;;;;;;;;;;8353202;28;20040;-67
2022/01/05 17:52:29;;;;;;;7.72;1.77;;;;;;;;;;8355751;28;20267;-68
2022/01/05 17:56:33;;;;;;;10.88;2.60;;;;;;;;;;8356860;28;20688;-68
2022/01/05 18:00:34;;;;;;;7.38;2.00;;;;;;;;;;8373499;28;20063;-67
2022/01/05 18:04:34;;;;;;;10.00;2.38;;;;;;;;;;8354591;28;20147;-67
2022/01/05 18:08:34;;;;;;;7.13;2.17;;;;;;;;;;8356537;28;20029;-67
2022/01/05 18:12:35;;;;;;;8.30;2.63;;;;;;;;;;8357929;28;20132;-67
2022/01/05 18:16:47;;;;;;;14.27;3.50;;;;;;;;;;8353959;28;20071;-67
2022/01/05 18:20:47;;;;;;;6.95;2.17;;;;;;;;;;8355534;28;20028;-67
2022/01/05 18:24:50;;;;;;;11.50;2.80;;;;;;;;;;8356244;28;20070;-67
2022/01/05 18:28:51;;;;;;;9.60;2.75;;;;;;;;;;8356069;28;20061;-67
2022/01/05 18:32:52;;;;;;;9.32;2.85;;;;;;;;;;8354586;28;20342;-67
2022/01/05 18:36:52;;;;;;;9.02;2.50;;;;;;;;;;8354933;28;20102;-68
2022/01/05 18:40:52;;;;;;;9.52;2.70;;;;;;;;;;8355571;28;20575;-67
2022/01/05 18:44:53;;;;;;;7.95;2.33;;;;;;;;;;8354257;28;20631;-68
2022/01/05 18:48:54;;;;;;;7.00;2.45;;;;;;;;;;8355468;28;20083;-68
2022/01/05 18:52:54;;;;;;;10.77;2.53;;;;;;;;;;8356765;28;20111;-68
2022/01/05 18:56:55;;;;;;;14.15;2.67;;;;;;;;;;8355948;28;20024;-68
2022/01/05 19:00:55;;;;;;;14.68;3.22;;;;;;;;;;8355801;28;20040;-67
2022/01/05 19:04:55;;;;;;;7.57;2.28;;;;;;;;;;8359938;28;20037;-67
2022/01/05 19:08:55;;;;;;;11.18;2.67;;;;;;;;;;8363497;28;20111;-67
2022/01/05 19:12:55;;;;;;;9.48;2.72;;;;;;;;;;8360051;28;20024;-67
2022/01/05 19:16:56;;;;;;;13.02;2.60;;;;;;;;;;8360841;28;20413;-67
2022/01/05 19:20:56;;;;;;;10.63;2.70;;;;;;;;;;8361634;28;20385;-67
2022/01/05 19:24:56;;;;;;;10.38;2.15;;;;;;;;;;8362378;28;21104;-67
2022/01/05 19:28:56;;;;;;;8.87;2.20;;;;;;;;;;8360490;28;20032;-68
2022/01/05 19:32:56;;;;;;;11.27;2.58;;;;;;;;;;8359627;28;20310;-68
2022/01/05 19:36:57;;;;;;;14.60;3.25;;;;;;;;;;8360868;28;20024;-68
2022/01/05 19:40:57;;;;;;;7.03;2.47;;;;;;;;;;8361722;28;20111;-68
2022/01/05 19:44:57;;;;;;;9.60;2.45;;;;;;;;;;8359398;28;20096;-68
2022/01/05 19:48:58;;;;;;;6.00;2.33;;;;;;;;;;8359702;28;20567;-68
2022/01/05 19:53:04;;;;;;;9.48;2.90;;;;;;;;;;8358896;28;20020;-68
2022/01/05 19:57:05;;;;;;;11.88;2.75;;;;;;;;;;8360903;28;20032;-68
2022/01/05 20:01:07;;;;;;;11.20;2.85;;;;;;;;;;8360613;28;20486;-67
2022/01/05 20:05:07;;;;;;;13.00;3.45;;;;;;;;;;8359952;28;20127;-67
2022/01/05 20:09:08;;;;;;;14.50;3.47;;;;;;;;;;8360998;28;20032;-68
2022/01/05 20:13:08;;;;;;;10.18;3.35;;;;;;;;;;8360593;28;20748;-68
2022/01/05 20:17:08;;;;;;;11.73;3.63;;;;;;;;;;8357727;28;20978;-68
2022/01/05 20:21:09;;;;;;;9.90;3.38;;;;;;;;;;8361354;28;20286;-68
2022/01/05 20:25:09;;;;;;;10.70;2.40;;;;;;;;;;8359451;28;20431;-68
2022/01/05 20:29:10;;;;;;;10.05;2.85;;;;;;;;;;8360373;28;20093;-68
2022/01/05 20:33:10;;;;;;;12.02;2.90;;;;;;;;;;8358761;28;20062;-68
2022/01/05 20:37:11;;;;;;;12.55;2.75;;;;;;;;;;8359195;28;20025;-68
2022/01/05 20:41:11;;;;;;;13.27;2.65;;;;;;;;;;8359742;28;20473;-68
2022/01/05 20:45:11;;;;;;;11.20;3.10;;;;;;;;;;8358657;28;20066;-68
2022/01/05 20:49:13;;;;;;;10.77;2.78;;;;;;;;;;8373399;28;20052;-68
2022/01/05 20:53:13;;;;;;;11.13;3.35;;;;;;;;;;8360534;28;20526;-68
2022/01/05 20:57:13;;;;;;;8.55;3.10;;;;;;;;;;8358614;28;20032;-68
2022/01/05 21:01:13;;;;;;;7.10;2.75;;;;;;;;;;8358852;28;20040;-68
2022/01/05 21:05:14;;;;;;;6.47;2.50;;;;;;;;;;8358137;28;20491;-68
2022/01/05 21:09:14;;;;;;;9.13;2.90;;;;;;;;;;8358981;28;20024;-68
2022/01/05 21:13:14;;;;;;;13.38;2.72;;;;;;;;;;8358242;28;20032;-68
2022/01/05 21:17:14;;;;;;;13.30;3.30;;;;;;;;;;8357763;28;20059;-68
2022/01/05 21:21:15;;;;;;;12.95;3.10;;;;;;;;;;8358231;28;20344;-68
2022/01/05 21:25:17;;;;;;;11.05;3.20;;;;;;;;;;8358562;28;20024;-68
2022/01/05 21:29:17;;;;;;;7.93;3.00;;;;;;;;;;8357011;28;20027;-68
2022/01/05 21:33:17;;;;;;;12.55;3.20;;;;;;;;;;8356100;28;20033;-68
2022/01/05 21:37:17;;;;;;;9.93;3.53;;;;;;;;;;8358841;28;20409;-68
2022/01/05 21:41:18;;;;;;;9.15;3.60;;;;;;;;;;8357604;28;20387;-68
2022/01/05 21:45:18;;;;;;;11.68;3.60;;;;;;;;;;8355813;28;20322;-68
2022/01/05 21:49:18;;;;;;;10.10;3.53;;;;;;;;;;8348964;28;20538;-68
2022/01/05 21:53:18;;;;;;;8.23;2.85;;;;;;;;;;8354349;28;20016;-68
2022/01/05 21:57:18;;;;;;;9.82;2.92;;;;;;;;;;8355630;28;20032;-68
2022/01/05 22:01:19;;;;;;;11.52;3.13;;;;;;;;;;8357349;28;20067;-68
2022/01/05 22:05:19;;;;;;;8.13;2.70;;;;;;;;;;8354206;28;20032;-68
2022/01/05 22:09:19;;;;;;;10.47;2.93;;;;;;;;;;8355419;28;20062;-68
2022/01/05 22:13:19;;;;;;;9.90;2.97;;;;;;;;;;8354460;28;20294;-67
2022/01/05 22:17:20;;;;;;;7.70;3.15;;;;;;;;;;8352441;28;20683;-68
2022/01/05 22:21:20;;;;;;;11.18;3.15;;;;;;;;;;8355999;28;20086;-67
2022/01/05 22:25:20;;;;;;;10.82;2.97;;;;;;;;;;8354712;28;20032;-68
2022/01/05 22:29:20;;;;;;;10.48;3.15;;;;;;;;;;8355233;28;20818;-67
2022/01/05 22:33:20;;;;;;;10.65;3.20;;;;;;;;;;8353010;28;20067;-67
2022/01/05 22:37:21;;;;;;;6.85;3.00;;;;;;;;;;8353575;28;20138;-68
2022/01/05 22:41:21;;;;;;;9.75;3.20;;;;;;;;;;8356340;28;20421;-67
2022/01/05 22:45:21;;;;;;;8.23;2.78;;;;;;;;;;8355210;28;25317;-68
2022/01/05 22:49:22;;;;;;;7.70;2.67;;;;;;;;;;8353948;28;20419;-68
2022/01/05 22:53:22;;;;;;;14.95;3.33;;;;;;;;;;8355964;28;20707;-67
2022/01/05 22:57:23;;;;;;;7.80;2.85;;;;;;;;;;8355943;28;20497;-68
2022/01/05 23:01:23;;;;;;;9.13;3.10;;;;;;;;;;8354089;28;20044;-67
2022/01/05 23:05:23;;;;;;;11.00;3.40;;;;;;;;;;8353029;28;20545;-67
2022/01/05 23:09:24;;;;;;;8.63;2.97;;;;;;;;;;8354910;28;20650;-67
2022/01/05 23:13:24;;;;;;;5.15;2.70;;;;;;;;;;8354732;28;20021;-67
2022/01/05 23:17:24;;;;;;;7.85;3.05;;;;;;;;;;8354684;28;20040;-67
2022/01/05 23:21:24;;;;;;;10.82;3.05;;;;;;;;;;8354521;28;20123;-68
2022/01/05 23:25:24;;;;;;;11.32;2.95;;;;;;;;;;8354174;28;20508;-68
2022/01/05 23:29:24;;;;;;;10.33;2.80;;;;;;;;;;8356181;28;21190;-68
2022/01/05 23:33:25;;;;;;;9.05;3.15;;;;;;;;;;8351651;28;20377;-68
2022/01/05 23:37:25;;;;;;;6.88;2.58;;;;;;;;;;8355218;28;20624;-68
2022/01/05 23:41:25;;;;;;;11.07;2.80;;;;;;;;;;8354345;28;20037;-68
2022/01/05 23:45:26;;;;;;;4.80;2.47;;;;;;;;;;8355170;28;20582;-68
2022/01/05 23:49:26;;;;;;;8.65;2.67;;;;;;;;;;8356066;28;21102;-68
2022/01/05 23:53:27;;;;;;;7.35;3.00;;;;;;;;;;8361125;28;20055;-68
2022/01/05 23:57:27;;;;;;;7.35;2.83;;;;;;;;;;8361309;28;20366;-68
